sensor_id;sensor_type;location;lat;lon;timestamp;pressure;altitude;pressure_sealevel;temperature
61595;BMP280;47397;48.194;11.632;2023-07-31T00:00:53;96078.88;;;17.12
61595;BMP280;47397;48.194;11.632;2023-07-31T00:01:55;96082.75;;;17.02
61595;BMP280;47397;48.194;11.632;2023-07-31T00:02:55;96079.44;;;17.00
61595;BMP280;47397;48.194;11.632;2023-07-31T00:03:55;96074.59;;;16.94
61595;BMP280;47397;48.194;11.632;2023-07-31T00:04:56;96080.25;;;17.00
61595;BMP280;47397;48.194;11.632;2023-07-31T00:05:56;96083.81;;;16.98
61595;BMP280;47397;48.194;11.632;2023-07-31T00:06:57;96073.97;;;16.88
61595;BMP280;47397;48.194;11.632;2023-07-31T00:07:57;96072.91;;;16.93
61595;BMP280;47397;48.194;11.632;2023-07-31T00:08:57;96075.22;;;16.80
61595;BMP280;47397;48.194;11.632;2023-07-31T00:09:58;96067.59;;;16.78
61595;BMP280;47397;48.194;11.632;2023-07-31T00:11:00;96075.38;;;16.77
61595;BMP280;47397;48.194;11.632;2023-07-31T00:12:00;96075.09;;;16.63
61595;BMP280;47397;48.194;11.632;2023-07-31T00:13:00;96073.88;;;16.71
61595;BMP280;47397;48.194;11.632;2023-07-31T00:14:01;96072.97;;;16.72
61595;BMP280;47397;48.194;11.632;2023-07-31T00:15:01;96075.50;;;16.74
61595;BMP280;47397;48.194;11.632;2023-07-31T00:16:02;96077.94;;;16.56
61595;BMP280;47397;48.194;11.632;2023-07-31T00:17:03;96071.84;;;16.59
61595;BMP280;47397;48.194;11.632;2023-07-31T00:18:03;96069.41;;;16.56
61595;BMP280;47397;48.194;11.632;2023-07-31T00:19:04;96073.09;;;16.50
61595;BMP280;47397;48.194;11.632;2023-07-31T00:20:05;96076.22;;;16.57
61595;BMP280;47397;48.194;11.632;2023-07-31T00:21:05;96069.84;;;16.66
61595;BMP280;47397;48.194;11.632;2023-07-31T00:22:06;96075.84;;;16.46
61595;BMP280;47397;48.194;11.632;2023-07-31T00:23:06;96075.94;;;16.63
61595;BMP280;47397;48.194;11.632;2023-07-31T00:24:07;96075.94;;;16.63
61595;BMP280;47397;48.194;11.632;2023-07-31T00:25:07;96078.91;;;16.54
61595;BMP280;47397;48.194;11.632;2023-07-31T00:26:09;96077.03;;;16.39
61595;BMP280;47397;48.194;11.632;2023-07-31T00:27:10;96078.97;;;16.52
61595;BMP280;47397;48.194;11.632;2023-07-31T00:28:10;96077.88;;;16.58
61595;BMP280;47397;48.194;11.632;2023-07-31T00:29:10;96073.50;;;16.60
61595;BMP280;47397;48.194;11.632;2023-07-31T00:30:11;96074.97;;;16.47
61595;BMP280;47397;48.194;11.632;2023-07-31T00:31:12;96075.53;;;16.33
61595;BMP280;47397;48.194;11.632;2023-07-31T00:32:12;96073.69;;;16.37
61595;BMP280;47397;48.194;11.632;2023-07-31T00:33:12;96076.69;;;16.46
61595;BMP280;47397;48.194;11.632;2023-07-31T00:34:13;96075.59;;;16.52
61595;BMP280;47397;48.194;11.632;2023-07-31T00:35:13;96065.19;;;16.55
61595;BMP280;47397;48.194;11.632;2023-07-31T00:36:14;96064.34;;;16.54
61595;BMP280;47397;48.194;11.632;2023-07-31T00:37:14;96069.00;;;16.26
61595;BMP280;47397;48.194;11.632;2023-07-31T00:38:15;96072.28;;;16.30
61595;BMP280;47397;48.194;11.632;2023-07-31T00:39:15;96069.50;;;16.34
61595;BMP280;47397;48.194;11.632;2023-07-31T00:40:16;96061.63;;;16.39
61595;BMP280;47397;48.194;11.632;2023-07-31T00:41:17;96066.00;;;16.37
61595;BMP280;47397;48.194;11.632;2023-07-31T00:42:18;96062.34;;;16.42
61595;BMP280;47397;48.194;11.632;2023-07-31T00:43:18;96058.31;;;16.55
61595;BMP280;47397;48.194;11.632;2023-07-31T00:44:19;96068.13;;;16.27
61595;BMP280;47397;48.194;11.632;2023-07-31T00:45:19;96061.19;;;16.29
61595;BMP280;47397;48.194;11.632;2023-07-31T00:46:20;96067.69;;;16.38
61595;BMP280;47397;48.194;11.632;2023-07-31T00:47:21;96054.25;;;16.31
61595;BMP280;47397;48.194;11.632;2023-07-31T00:48:22;96058.19;;;16.40
61595;BMP280;47397;48.194;11.632;2023-07-31T00:49:22;96053.13;;;16.38
61595;BMP280;47397;48.194;11.632;2023-07-31T00:50:24;96060.97;;;16.15
61595;BMP280;47397;48.194;11.632;2023-07-31T00:51:24;96053.97;;;16.18
61595;BMP280;47397;48.194;11.632;2023-07-31T00:52:25;96055.03;;;16.33
61595;BMP280;47397;48.194;11.632;2023-07-31T00:53:25;96053.94;;;16.39
61595;BMP280;47397;48.194;11.632;2023-07-31T00:54:26;96050.94;;;16.29
61595;BMP280;47397;48.194;11.632;2023-07-31T00:55:26;96051.56;;;16.34
61595;BMP280;47397;48.194;11.632;2023-07-31T00:56:28;96053.28;;;16.34
61595;BMP280;47397;48.194;11.632;2023-07-31T00:57:29;96053.50;;;16.29
61595;BMP280;47397;48.194;11.632;2023-07-31T00:58:30;96053.88;;;16.40
61595;BMP280;47397;48.194;11.632;2023-07-31T00:59:31;96051.06;;;16.26
61595;BMP280;47397;48.194;11.632;2023-07-31T01:00:31;96053.19;;;16.37
61595;BMP280;47397;48.194;11.632;2023-07-31T01:01:32;96051.38;;;16.39
61595;BMP280;47397;48.194;11.632;2023-07-31T01:02:32;96055.50;;;16.22
61595;BMP280;47397;48.194;11.632;2023-07-31T01:03:33;96053.28;;;16.15
61595;BMP280;47397;48.194;11.632;2023-07-31T01:04:34;96048.50;;;16.26
61595;BMP280;47397;48.194;11.632;2023-07-31T01:05:40;96052.44;;;16.14
61595;BMP280;47397;48.194;11.632;2023-07-31T01:06:48;96045.88;;;16.27
61595;BMP280;47397;48.194;11.632;2023-07-31T01:07:56;96049.00;;;16.34
61595;BMP280;47397;48.194;11.632;2023-07-31T01:09:01;96049.66;;;16.19
61595;BMP280;47397;48.194;11.632;2023-07-31T01:10:06;96049.06;;;16.33
61595;BMP280;47397;48.194;11.632;2023-07-31T01:11:14;96049.00;;;16.34
61595;BMP280;47397;48.194;11.632;2023-07-31T01:12:17;96052.06;;;16.42
61595;BMP280;47397;48.194;11.632;2023-07-31T01:13:18;96041.88;;;16.41
61595;BMP280;47397;48.194;11.632;2023-07-31T01:14:18;96046.31;;;16.37
61595;BMP280;47397;48.194;11.632;2023-07-31T01:15:19;96048.44;;;16.27
61595;BMP280;47397;48.194;11.632;2023-07-31T01:16:20;96045.03;;;16.27
61595;BMP280;47397;48.194;11.632;2023-07-31T01:17:20;96048.06;;;16.37
61595;BMP280;47397;48.194;11.632;2023-07-31T01:18:20;96041.13;;;16.39
61595;BMP280;47397;48.194;11.632;2023-07-31T01:19:24;96046.63;;;16.30
61595;BMP280;47397;48.194;11.632;2023-07-31T01:20:26;96034.94;;;16.43
61595;BMP280;47397;48.194;11.632;2023-07-31T01:21:51;96044.59;;;16.38
61595;BMP280;47397;48.194;11.632;2023-07-31T01:23:13;96037.84;;;16.54
61595;BMP280;47397;48.194;11.632;2023-07-31T01:24:23;96040.59;;;16.31
61595;BMP280;47397;48.194;11.632;2023-07-31T01:27:05;96042.25;;;16.32
61595;BMP280;47397;48.194;11.632;2023-07-31T01:28:11;96031.13;;;16.51
61595;BMP280;47397;48.194;11.632;2023-07-31T01:29:17;96033.50;;;16.56
61595;BMP280;47397;48.194;11.632;2023-07-31T01:30:24;96028.50;;;16.53
61595;BMP280;47397;48.194;11.632;2023-07-31T01:31:26;96031.41;;;16.45
61595;BMP280;47397;48.194;11.632;2023-07-31T01:32:29;96031.06;;;16.53
61595;BMP280;47397;48.194;11.632;2023-07-31T01:33:29;96026.00;;;16.51
61595;BMP280;47397;48.194;11.632;2023-07-31T01:34:31;96023.72;;;16.45
61595;BMP280;47397;48.194;11.632;2023-07-31T01:35:32;96025.16;;;16.51
61595;BMP280;47397;48.194;11.632;2023-07-31T01:36:33;96023.66;;;16.47
61595;BMP280;47397;48.194;11.632;2023-07-31T01:37:34;96022.47;;;16.54
61595;BMP280;47397;48.194;11.632;2023-07-31T01:38:34;96023.94;;;16.41
61595;BMP280;47397;48.194;11.632;2023-07-31T01:39:35;96022.13;;;16.43
61595;BMP280;47397;48.194;11.632;2023-07-31T01:40:41;96021.97;;;16.46
61595;BMP280;47397;48.194;11.632;2023-07-31T01:41:41;96025.44;;;16.45
61595;BMP280;47397;48.194;11.632;2023-07-31T01:42:44;96021.28;;;16.42
61595;BMP280;47397;48.194;11.632;2023-07-31T01:43:44;96024.13;;;16.36
61595;BMP280;47397;48.194;11.632;2023-07-31T01:44:45;96020.59;;;16.39
61595;BMP280;47397;48.194;11.632;2023-07-31T01:45:45;96022.94;;;16.43
61595;BMP280;47397;48.194;11.632;2023-07-31T01:46:45;96023.09;;;16.40
61595;BMP280;47397;48.194;11.632;2023-07-31T01:47:46;96023.94;;;16.41
61595;BMP280;47397;48.194;11.632;2023-07-31T01:48:46;96027.38;;;16.40
61595;BMP280;47397;48.194;11.632;2023-07-31T01:49:47;96019.09;;;16.33
61595;BMP280;47397;48.194;11.632;2023-07-31T01:50:47;96024.97;;;16.37
61595;BMP280;47397;48.194;11.632;2023-07-31T01:51:47;96018.94;;;16.38
61595;BMP280;47397;48.194;11.632;2023-07-31T01:52:48;96027.53;;;16.37
61595;BMP280;47397;48.194;11.632;2023-07-31T01:53:48;96013.06;;;16.34
61595;BMP280;47397;48.194;11.632;2023-07-31T01:54:49;96021.34;;;16.41
61595;BMP280;47397;48.194;11.632;2023-07-31T01:55:49;96025.72;;;16.39
61595;BMP280;47397;48.194;11.632;2023-07-31T01:56:50;96017.00;;;16.43
61595;BMP280;47397;48.194;11.632;2023-07-31T01:57:52;96018.22;;;16.34
61595;BMP280;47397;48.194;11.632;2023-07-31T01:58:52;96019.41;;;16.46
61595;BMP280;47397;48.194;11.632;2023-07-31T01:59:52;96016.44;;;16.36
61595;BMP280;47397;48.194;11.632;2023-07-31T02:00:53;96019.84;;;16.37
61595;BMP280;47397;48.194;11.632;2023-07-31T02:01:53;96018.78;;;16.41
61595;BMP280;47397;48.194;11.632;2023-07-31T02:02:53;96016.16;;;16.42
61595;BMP280;47397;48.194;11.632;2023-07-31T02:03:54;96014.41;;;16.43
61595;BMP280;47397;48.194;11.632;2023-07-31T02:04:54;96020.72;;;16.36
61595;BMP280;47397;48.194;11.632;2023-07-31T02:05:55;96019.31;;;16.29
61595;BMP280;47397;48.194;11.632;2023-07-31T02:06:55;96020.84;;;16.33
61595;BMP280;47397;48.194;11.632;2023-07-31T02:07:56;96018.34;;;16.31
61595;BMP280;47397;48.194;11.632;2023-07-31T02:08:56;96021.88;;;16.29
61595;BMP280;47397;48.194;11.632;2023-07-31T02:09:56;96017.66;;;16.27
61595;BMP280;47397;48.194;11.632;2023-07-31T02:10:57;96014.94;;;16.31
61595;BMP280;47397;48.194;11.632;2023-07-31T02:11:57;96022.34;;;16.18
61595;BMP280;47397;48.194;11.632;2023-07-31T02:12:59;96015.84;;;16.30
61595;BMP280;47397;48.194;11.632;2023-07-31T02:13:59;96013.91;;;16.35
61595;BMP280;47397;48.194;11.632;2023-07-31T02:15:00;96014.34;;;16.44
61595;BMP280;47397;48.194;11.632;2023-07-31T02:16:00;96009.91;;;16.48
61595;BMP280;47397;48.194;11.632;2023-07-31T02:17:01;96001.09;;;16.35
61595;BMP280;47397;48.194;11.632;2023-07-31T02:18:01;96009.56;;;16.37
61595;BMP280;47397;48.194;11.632;2023-07-31T02:19:02;96001.72;;;16.21
61595;BMP280;47397;48.194;11.632;2023-07-31T02:20:02;96005.19;;;16.20
61595;BMP280;47397;48.194;11.632;2023-07-31T02:21:03;96003.84;;;16.30
61595;BMP280;47397;48.194;11.632;2023-07-31T02:22:04;95995.53;;;16.25
61595;BMP280;47397;48.194;11.632;2023-07-31T02:23:04;96000.31;;;16.14
61595;BMP280;47397;48.194;11.632;2023-07-31T02:24:05;95997.19;;;16.07
61595;BMP280;47397;48.194;11.632;2023-07-31T02:25:06;95992.28;;;16.21
61595;BMP280;47397;48.194;11.632;2023-07-31T02:26:07;95993.94;;;16.22
61595;BMP280;47397;48.194;11.632;2023-07-31T02:27:07;95990.41;;;16.25
61595;BMP280;47397;48.194;11.632;2023-07-31T02:28:09;95990.34;;;16.08
61595;BMP280;47397;48.194;11.632;2023-07-31T02:29:09;95995.19;;;16.14
61595;BMP280;47397;48.194;11.632;2023-07-31T02:30:11;95989.28;;;16.12
61595;BMP280;47397;48.194;11.632;2023-07-31T02:31:11;95988.59;;;16.08
61595;BMP280;47397;48.194;11.632;2023-07-31T02:32:12;95988.53;;;16.10
61595;BMP280;47397;48.194;11.632;2023-07-31T02:33:12;95991.50;;;16.01
61595;BMP280;47397;48.194;11.632;2023-07-31T02:34:12;95987.72;;;16.09
61595;BMP280;47397;48.194;11.632;2023-07-31T02:35:13;95982.31;;;16.15
61595;BMP280;47397;48.194;11.632;2023-07-31T02:36:13;95989.44;;;16.09
61595;BMP280;47397;48.194;11.632;2023-07-31T02:37:14;95990.03;;;15.95
61595;BMP280;47397;48.194;11.632;2023-07-31T02:38:14;95982.72;;;16.06
61595;BMP280;47397;48.194;11.632;2023-07-31T02:39:14;95976.06;;;16.02
61595;BMP280;47397;48.194;11.632;2023-07-31T02:40:15;95977.72;;;16.03
61595;BMP280;47397;48.194;11.632;2023-07-31T02:41:15;95984.00;;;15.96
61595;BMP280;47397;48.194;11.632;2023-07-31T02:42:16;95983.50;;;15.88
61595;BMP280;47397;48.194;11.632;2023-07-31T02:43:18;95984.97;;;15.93
61595;BMP280;47397;48.194;11.632;2023-07-31T02:44:18;95988.13;;;15.80
61595;BMP280;47397;48.194;11.632;2023-07-31T02:45:18;95981.97;;;15.84
61595;BMP280;47397;48.194;11.632;2023-07-31T02:46:19;95976.06;;;15.82
61595;BMP280;47397;48.194;11.632;2023-07-31T02:47:20;95978.22;;;15.91
61595;BMP280;47397;48.194;11.632;2023-07-31T02:48:20;95979.59;;;15.79
61595;BMP280;47397;48.194;11.632;2023-07-31T02:49:20;95980.44;;;15.80
61595;BMP280;47397;48.194;11.632;2023-07-31T02:50:21;95974.47;;;15.79
61595;BMP280;47397;48.194;11.632;2023-07-31T02:51:21;95975.22;;;15.62
61595;BMP280;47397;48.194;11.632;2023-07-31T02:52:22;95979.81;;;15.75
61595;BMP280;47397;48.194;11.632;2023-07-31T02:53:22;95975.97;;;15.65
61595;BMP280;47397;48.194;11.632;2023-07-31T02:54:23;95978.16;;;15.74
61595;BMP280;47397;48.194;11.632;2023-07-31T02:55:23;95975.09;;;15.66
61595;BMP280;47397;48.194;11.632;2023-07-31T02:56:23;95979.25;;;15.68
61595;BMP280;47397;48.194;11.632;2023-07-31T02:57:24;95966.63;;;15.63
61595;BMP280;47397;48.194;11.632;2023-07-31T02:58:26;95974.13;;;15.68
61595;BMP280;47397;48.194;11.632;2023-07-31T02:59:28;95974.78;;;15.51
61595;BMP280;47397;48.194;11.632;2023-07-31T03:00:28;95972.03;;;15.56
61595;BMP280;47397;48.194;11.632;2023-07-31T03:01:28;95968.44;;;15.61
61595;BMP280;47397;48.194;11.632;2023-07-31T03:02:29;95971.19;;;15.55
61595;BMP280;47397;48.194;11.632;2023-07-31T03:03:29;95966.31;;;15.49
61595;BMP280;47397;48.194;11.632;2023-07-31T03:04:30;95969.53;;;15.54
61595;BMP280;47397;48.194;11.632;2023-07-31T03:05:30;95972.53;;;15.44
61595;BMP280;47397;48.194;11.632;2023-07-31T03:06:30;95975.69;;;15.50
61595;BMP280;47397;48.194;11.632;2023-07-31T03:07:31;95971.97;;;15.37
61595;BMP280;47397;48.194;11.632;2023-07-31T03:08:31;95970.75;;;15.46
61595;BMP280;47397;48.194;11.632;2023-07-31T03:09:32;95968.63;;;15.35
61595;BMP280;47397;48.194;11.632;2023-07-31T03:10:32;95970.44;;;15.33
61595;BMP280;47397;48.194;11.632;2023-07-31T03:11:32;95974.03;;;15.29
61595;BMP280;47397;48.194;11.632;2023-07-31T03:12:33;95972.69;;;15.19
61595;BMP280;47397;48.194;11.632;2023-07-31T03:13:34;95971.66;;;15.24
61595;BMP280;47397;48.194;11.632;2023-07-31T03:14:35;95967.03;;;15.32
61595;BMP280;47397;48.194;11.632;2023-07-31T03:15:35;95964.34;;;15.36
61595;BMP280;47397;48.194;11.632;2023-07-31T03:16:36;95967.53;;;15.20
61595;BMP280;47397;48.194;11.632;2023-07-31T03:17:36;95964.53;;;15.31
61595;BMP280;47397;48.194;11.632;2023-07-31T03:18:36;95966.47;;;15.26
61595;BMP280;47397;48.194;11.632;2023-07-31T03:19:37;95967.59;;;15.19
61595;BMP280;47397;48.194;11.632;2023-07-31T03:20:42;95965.22;;;15.14
61595;BMP280;47397;48.194;11.632;2023-07-31T03:21:42;95967.97;;;15.10
61595;BMP280;47397;48.194;11.632;2023-07-31T03:22:42;95965.41;;;15.10
61595;BMP280;47397;48.194;11.632;2023-07-31T03:23:43;95970.13;;;14.98
61595;BMP280;47397;48.194;11.632;2023-07-31T03:24:43;95968.22;;;15.04
61595;BMP280;47397;48.194;11.632;2023-07-31T03:25:55;95966.81;;;14.96
61595;BMP280;47397;48.194;11.632;2023-07-31T03:26:55;95966.16;;;15.12
61595;BMP280;47397;48.194;11.632;2023-07-31T03:27:56;95962.50;;;14.97
61595;BMP280;47397;48.194;11.632;2023-07-31T03:28:58;95974.22;;;15.02
61595;BMP280;47397;48.194;11.632;2023-07-31T03:29:59;95972.31;;;15.08
61595;BMP280;47397;48.194;11.632;2023-07-31T03:30:59;95975.53;;;15.13
61595;BMP280;47397;48.194;11.632;2023-07-31T03:32:00;95976.03;;;15.00
61595;BMP280;47397;48.194;11.632;2023-07-31T03:33:00;95973.91;;;15.10
61595;BMP280;47397;48.194;11.632;2023-07-31T03:34:00;95979.03;;;15.10
61595;BMP280;47397;48.194;11.632;2023-07-31T03:35:01;95976.34;;;15.13
61595;BMP280;47397;48.194;11.632;2023-07-31T03:36:01;95980.94;;;15.05
61595;BMP280;47397;48.194;11.632;2023-07-31T03:37:02;95978.06;;;14.92
61595;BMP280;47397;48.194;11.632;2023-07-31T03:38:02;95982.75;;;15.03
61595;BMP280;47397;48.194;11.632;2023-07-31T03:39:03;95976.41;;;15.12
61595;BMP280;47397;48.194;11.632;2023-07-31T03:40:04;95975.97;;;15.02
61595;BMP280;47397;48.194;11.632;2023-07-31T03:41:05;95984.34;;;15.06
61595;BMP280;47397;48.194;11.632;2023-07-31T03:42:06;95979.53;;;14.98
61595;BMP280;47397;48.194;11.632;2023-07-31T03:43:06;95982.56;;;15.08
61595;BMP280;47397;48.194;11.632;2023-07-31T03:44:08;95977.50;;;15.06
61595;BMP280;47397;48.194;11.632;2023-07-31T03:45:09;95978.06;;;15.13
61595;BMP280;47397;48.194;11.632;2023-07-31T03:46:10;95985.56;;;15.17
61595;BMP280;47397;48.194;11.632;2023-07-31T03:47:10;95982.13;;;15.18
61595;BMP280;47397;48.194;11.632;2023-07-31T03:48:11;95980.44;;;15.17
61595;BMP280;47397;48.194;11.632;2023-07-31T03:49:11;95981.16;;;15.21
61595;BMP280;47397;48.194;11.632;2023-07-31T03:50:12;95982.31;;;15.14
61595;BMP280;47397;48.194;11.632;2023-07-31T03:51:12;95982.25;;;15.15
61595;BMP280;47397;48.194;11.632;2023-07-31T03:52:13;95977.69;;;15.22
61595;BMP280;47397;48.194;11.632;2023-07-31T03:53:13;95981.38;;;15.37
61595;BMP280;47397;48.194;11.632;2023-07-31T03:54:13;95984.84;;;15.36
61595;BMP280;47397;48.194;11.632;2023-07-31T03:55:14;95984.47;;;15.23
61595;BMP280;47397;48.194;11.632;2023-07-31T03:56:14;95979.28;;;15.26
61595;BMP280;47397;48.194;11.632;2023-07-31T03:57:15;95984.63;;;15.20
61595;BMP280;47397;48.194;11.632;2023-07-31T03:58:15;95981.28;;;15.18
61595;BMP280;47397;48.194;11.632;2023-07-31T03:59:17;95982.13;;;15.18
61595;BMP280;47397;48.194;11.632;2023-07-31T04:00:17;95988.31;;;15.13
61595;BMP280;47397;48.194;11.632;2023-07-31T04:01:19;95984.09;;;15.12
61595;BMP280;47397;48.194;11.632;2023-07-31T04:02:19;95981.41;;;15.15
61595;BMP280;47397;48.194;11.632;2023-07-31T04:03:20;95980.38;;;15.19
61595;BMP280;47397;48.194;11.632;2023-07-31T04:04:20;95985.16;;;15.28
61595;BMP280;47397;48.194;11.632;2023-07-31T04:05:21;95985.66;;;15.36
61595;BMP280;47397;48.194;11.632;2023-07-31T04:06:21;95982.34;;;15.34
61595;BMP280;47397;48.194;11.632;2023-07-31T04:07:21;95981.63;;;15.30
61595;BMP280;47397;48.194;11.632;2023-07-31T04:08:22;95976.97;;;15.40
61595;BMP280;47397;48.194;11.632;2023-07-31T04:09:23;95981.44;;;15.35
61595;BMP280;47397;48.194;11.632;2023-07-31T04:10:23;95974.59;;;15.36
61595;BMP280;47397;48.194;11.632;2023-07-31T04:11:23;95972.66;;;15.41
61595;BMP280;47397;48.194;11.632;2023-07-31T04:12:24;95976.13;;;15.40
61595;BMP280;47397;48.194;11.632;2023-07-31T04:13:24;95971.56;;;15.46
61595;BMP280;47397;48.194;11.632;2023-07-31T04:14:26;95970.19;;;15.39
61595;BMP280;47397;48.194;11.632;2023-07-31T04:15:26;95968.25;;;15.44
61595;BMP280;47397;48.194;11.632;2023-07-31T04:16:27;95964.47;;;15.32
61595;BMP280;47397;48.194;11.632;2023-07-31T04:17:27;95969.34;;;15.39
61595;BMP280;47397;48.194;11.632;2023-07-31T04:18:28;95968.38;;;15.41
61595;BMP280;47397;48.194;11.632;2023-07-31T04:19:28;95965.06;;;15.39
61595;BMP280;47397;48.194;11.632;2023-07-31T04:20:28;95966.72;;;15.40
61595;BMP280;47397;48.194;11.632;2023-07-31T04:21:29;95969.78;;;15.48
61595;BMP280;47397;48.194;11.632;2023-07-31T04:22:29;95967.41;;;15.44
61595;BMP280;47397;48.194;11.632;2023-07-31T04:23:30;95965.22;;;15.55
61595;BMP280;47397;48.194;11.632;2023-07-31T04:24:30;95969.78;;;15.48
61595;BMP280;47397;48.194;11.632;2023-07-31T04:25:30;95962.59;;;15.56
61595;BMP280;47397;48.194;11.632;2023-07-31T04:26:31;95969.25;;;15.62
61595;BMP280;47397;48.194;11.632;2023-07-31T04:27:31;95971.69;;;15.65
61595;BMP280;47397;48.194;11.632;2023-07-31T04:28:32;95960.59;;;15.65
61595;BMP280;47397;48.194;11.632;2023-07-31T04:29:33;95964.97;;;15.62
61595;BMP280;47397;48.194;11.632;2023-07-31T04:30:34;95969.38;;;15.57
61595;BMP280;47397;48.194;11.632;2023-07-31T04:31:34;95962.59;;;15.56
61595;BMP280;47397;48.194;11.632;2023-07-31T04:32:35;95960.47;;;15.68
61595;BMP280;47397;48.194;11.632;2023-07-31T04:33:35;95966.84;;;15.78
61595;BMP280;47397;48.194;11.632;2023-07-31T04:34:35;95964.72;;;15.87
61595;BMP280;47397;48.194;11.632;2023-07-31T04:35:36;95965.06;;;15.80
61595;BMP280;47397;48.194;11.632;2023-07-31T04:36:36;95968.72;;;15.74
61595;BMP280;47397;48.194;11.632;2023-07-31T04:37:37;95967.56;;;15.81
61595;BMP280;47397;48.194;11.632;2023-07-31T04:38:37;95970.38;;;15.75
61595;BMP280;47397;48.194;11.632;2023-07-31T04:39:39;95967.00;;;15.75
61595;BMP280;47397;48.194;11.632;2023-07-31T04:40:39;95971.72;;;15.84
61595;BMP280;47397;48.194;11.632;2023-07-31T04:41:40;95962.84;;;15.91
61595;BMP280;47397;48.194;11.632;2023-07-31T04:42:40;95965.56;;;15.88
61595;BMP280;47397;48.194;11.632;2023-07-31T04:43:40;95977.28;;;15.93
61595;BMP280;47397;48.194;11.632;2023-07-31T04:44:42;95966.78;;;16.00
61595;BMP280;47397;48.194;11.632;2023-07-31T04:45:45;95965.03;;;16.00
61595;BMP280;47397;48.194;11.632;2023-07-31T04:46:45;95960.22;;;15.92
61595;BMP280;47397;48.194;11.632;2023-07-31T04:47:46;95963.38;;;15.99
61595;BMP280;47397;48.194;11.632;2023-07-31T04:48:46;95962.28;;;16.05
61595;BMP280;47397;48.194;11.632;2023-07-31T04:49:47;95959.63;;;16.06
61595;BMP280;47397;48.194;11.632;2023-07-31T04:50:47;95965.47;;;16.10
61595;BMP280;47397;48.194;11.632;2023-07-31T04:51:47;95959.34;;;16.12
61595;BMP280;47397;48.194;11.632;2023-07-31T04:52:48;95962.75;;;16.13
61595;BMP280;47397;48.194;11.632;2023-07-31T04:53:48;95961.03;;;16.13
61595;BMP280;47397;48.194;11.632;2023-07-31T04:54:49;95962.47;;;16.19
61595;BMP280;47397;48.194;11.632;2023-07-31T04:55:49;95957.34;;;16.19
61595;BMP280;47397;48.194;11.632;2023-07-31T04:56:49;95954.56;;;16.23
61595;BMP280;47397;48.194;11.632;2023-07-31T04:57:50;95959.69;;;16.23
61595;BMP280;47397;48.194;11.632;2023-07-31T04:58:50;95962.81;;;16.11
61595;BMP280;47397;48.194;11.632;2023-07-31T04:59:52;95959.84;;;16.20
61595;BMP280;47397;48.194;11.632;2023-07-31T05:00:52;95958.66;;;16.27
61595;BMP280;47397;48.194;11.632;2023-07-31T05:01:53;95957.56;;;16.33
61595;BMP280;47397;48.194;11.632;2023-07-31T05:02:53;95957.47;;;16.35
61595;BMP280;47397;48.194;11.632;2023-07-31T05:03:53;95962.56;;;16.36
61595;BMP280;47397;48.194;11.632;2023-07-31T05:04:54;95963.19;;;16.41
61595;BMP280;47397;48.194;11.632;2023-07-31T05:05:54;95957.69;;;16.49
61595;BMP280;47397;48.194;11.632;2023-07-31T05:06:55;95957.63;;;16.50
61595;BMP280;47397;48.194;11.632;2023-07-31T05:07:55;95954.09;;;16.53
61595;BMP280;47397;48.194;11.632;2023-07-31T05:08:55;95949.63;;;16.56
61595;BMP280;47397;48.194;11.632;2023-07-31T05:09:56;95954.56;;;16.61
61595;BMP280;47397;48.194;11.632;2023-07-31T05:10:56;95949.25;;;16.66
61595;BMP280;47397;48.194;11.632;2023-07-31T05:11:56;95948.38;;;16.65
61595;BMP280;47397;48.194;11.632;2023-07-31T05:12:57;95951.22;;;16.59
61595;BMP280;47397;48.194;11.632;2023-07-31T05:13:57;95957.13;;;16.61
61595;BMP280;47397;48.194;11.632;2023-07-31T05:14:59;95955.31;;;16.63
61595;BMP280;47397;48.194;11.632;2023-07-31T05:15:59;95953.72;;;16.61
61595;BMP280;47397;48.194;11.632;2023-07-31T05:17:00;95954.28;;;16.67
61595;BMP280;47397;48.194;11.632;2023-07-31T05:18:00;95957.63;;;16.69
61595;BMP280;47397;48.194;11.632;2023-07-31T05:19:01;95952.34;;;16.72
61595;BMP280;47397;48.194;11.632;2023-07-31T05:20:11;95960.13;;;16.71
61595;BMP280;47397;48.194;11.632;2023-07-31T05:21:11;95959.34;;;16.69
61595;BMP280;47397;48.194;11.632;2023-07-31T05:22:12;95961.78;;;16.72
61595;BMP280;47397;48.194;11.632;2023-07-31T05:23:12;95959.09;;;16.75
61595;BMP280;47397;48.194;11.632;2023-07-31T05:24:13;95961.78;;;16.72
61595;BMP280;47397;48.194;11.632;2023-07-31T05:25:14;95967.06;;;16.69
61595;BMP280;47397;48.194;11.632;2023-07-31T05:26:14;95957.63;;;16.69
61595;BMP280;47397;48.194;11.632;2023-07-31T05:27:14;95957.06;;;16.63
61595;BMP280;47397;48.194;11.632;2023-07-31T05:28:15;95957.63;;;16.69
61595;BMP280;47397;48.194;11.632;2023-07-31T05:29:15;95963.47;;;16.73
61595;BMP280;47397;48.194;11.632;2023-07-31T05:30:17;95957.13;;;16.80
61595;BMP280;47397;48.194;11.632;2023-07-31T05:31:17;95960.47;;;16.82
61595;BMP280;47397;48.194;11.632;2023-07-31T05:32:18;95956.63;;;16.91
61595;BMP280;47397;48.194;11.632;2023-07-31T05:33:18;95950.81;;;16.87
61595;BMP280;47397;48.194;11.632;2023-07-31T05:34:18;95956.91;;;16.84
61595;BMP280;47397;48.194;11.632;2023-07-31T05:35:19;95948.84;;;16.92
61595;BMP280;47397;48.194;11.632;2023-07-31T05:36:19;95948.84;;;16.92
61595;BMP280;47397;48.194;11.632;2023-07-31T05:37:20;95949.31;;;17.00
61595;BMP280;47397;48.194;11.632;2023-07-31T05:38:20;95957.25;;;17.13
61595;BMP280;47397;48.194;11.632;2023-07-31T05:39:20;95959.84;;;17.13
61595;BMP280;47397;48.194;11.632;2023-07-31T05:40:21;95951.91;;;17.17
61595;BMP280;47397;48.194;11.632;2023-07-31T05:41:21;95960.44;;;17.18
61595;BMP280;47397;48.194;11.632;2023-07-31T05:42:22;95951.38;;;17.28
61595;BMP280;47397;48.194;11.632;2023-07-31T05:43:22;95951.66;;;17.39
61595;BMP280;47397;48.194;11.632;2023-07-31T05:44:22;95954.53;;;17.33
61595;BMP280;47397;48.194;11.632;2023-07-31T05:45:25;95954.06;;;17.42
61595;BMP280;47397;48.194;11.632;2023-07-31T05:46:25;95948.50;;;17.52
61595;BMP280;47397;48.194;11.632;2023-07-31T05:47:26;95947.44;;;17.56
61595;BMP280;47397;48.194;11.632;2023-07-31T05:48:26;95947.44;;;17.56